Time;durP1;ratioP1;P1;durP2;ratioP2;P2;SDS_P1;SDS_P2;PMS_P1;PMS_P2;Temp;Humidity;BMP_temperature;BMP_pressure;BME280_temperature;BME280_humidity;BME280_pressure;Samples;Min_cycle;Max_cycle;Signal;HPM_P1;HPM_P2
2023/12/29 00:02:30;;;;;;;65.00;40.53;;;;;;;;;;13045955;22;20361;-86
2023/12/29 00:07:32;;;;;;;67.10;39.30;;;;;;;;;;13067014;22;20365;-86
2023/12/29 00:12:36;;;;;;;68.10;39.70;;;;;;;;;;13045429;22;20361;-86
2023/12/29 00:17:40;;;;;;;64.85;39.42;;;;;;;;;;13066236;22;20900;-84
2023/12/29 00:22:42;;;;;;;68.20;38.17;;;;;;;;;;13045414;22;20380;-84
2023/12/29 00:27:46;;;;;;;61.65;37.42;;;;;;;;;;13043965;22;20361;-84
2023/12/29 00:32:48;;;;;;;61.33;37.45;;;;;;;;;;13045018;22;20443;-84
2023/12/29 00:37:51;;;;;;;60.80;35.93;;;;;;;;;;13045090;22;20434;-85
2023/12/29 00:42:55;;;;;;;62.95;36.95;;;;;;;;;;13045880;22;20388;-85
2023/12/29 00:47:58;;;;;;;58.13;35.28;;;;;;;;;;13044721;22;20418;-84
2023/12/29 00:53:00;;;;;;;61.87;35.13;;;;;;;;;;13044117;22;20926;-84
2023/12/29 00:58:04;;;;;;;59.03;35.43;;;;;;;;;;13045006;22;20545;-85
2023/12/29 01:03:07;;;;;;;56.40;34.42;;;;;;;;;;13043753;22;20364;-84
2023/12/29 01:08:09;;;;;;;57.65;34.33;;;;;;;;;;13039886;22;20365;-83
2023/12/29 01:13:13;;;;;;;54.20;33.35;;;;;;;;;;13043855;22;20403;-84
2023/12/29 01:18:16;;;;;;;52.20;32.33;;;;;;;;;;13044063;22;20381;-84
2023/12/29 01:23:18;;;;;;;50.30;31.70;;;;;;;;;;13043346;22;20427;-85
2023/12/29 01:28:22;;;;;;;52.35;31.38;;;;;;;;;;13043993;22;20369;-84
2023/12/29 01:33:24;;;;;;;49.97;29.65;;;;;;;;;;13043817;22;20410;-85
2023/12/29 01:38:27;;;;;;;48.10;29.08;;;;;;;;;;13042924;22;20381;-84
2023/12/29 01:43:30;;;;;;;44.35;27.45;;;;;;;;;;13044458;22;20938;-84
2023/12/29 01:48:33;;;;;;;47.50;27.05;;;;;;;;;;13043954;22;20443;-84
2023/12/29 01:53:35;;;;;;;44.55;27.30;;;;;;;;;;13043140;22;20434;-85
2023/12/29 01:58:39;;;;;;;43.37;27.20;;;;;;;;;;13045038;22;20534;-85
2023/12/29 02:03:43;;;;;;;46.15;26.77;;;;;;;;;;13047605;22;20379;-84
2023/12/29 02:08:46;;;;;;;44.83;27.73;;;;;;;;;;13047835;22;20403;-84
2023/12/29 02:13:49;;;;;;;43.85;26.95;;;;;;;;;;13047556;22;20365;-82
2023/12/29 02:18:52;;;;;;;46.90;27.48;;;;;;;;;;13047351;22;20442;-85
2023/12/29 02:23:54;;;;;;;44.80;26.87;;;;;;;;;;13047876;22;20823;-84
2023/12/29 02:29:03;;;;;;;41.38;25.55;;;;;;;;;;13047570;22;20813;-84
2023/12/29 02:34:08;;;;;;;42.35;24.98;;;;;;;;;;13047784;22;20365;-84
2023/12/29 02:39:11;;;;;;;39.97;25.67;;;;;;;;;;13046445;22;20377;-85
2023/12/29 02:44:14;;;;;;;44.37;24.70;;;;;;;;;;13047592;22;20369;-86
2023/12/29 02:49:17;;;;;;;40.40;24.35;;;;;;;;;;13047450;22;20426;-85
2023/12/29 02:54:19;;;;;;;38.40;23.50;;;;;;;;;;13046606;22;20446;-85
2023/12/29 03:42:23;;;;;;;27.13;16.02;;;;;;;;;;13045600;22;20430;-86
2023/12/29 03:47:25;;;;;;;25.70;16.08;;;;;;;;;;13044674;22;20406;-85
2023/12/29 03:52:28;;;;;;;25.65;16.35;;;;;;;;;;13045926;22;20659;-85
2023/12/29 03:57:32;;;;;;;27.45;15.77;;;;;;;;;;13045204;22;20385;-85
2023/12/29 04:02:34;;;;;;;24.70;15.15;;;;;;;;;;13046517;22;20459;-86
2023/12/29 04:07:36;;;;;;;26.48;14.98;;;;;;;;;;13044844;22;20426;-86
2023/12/29 04:12:40;;;;;;;25.20;15.30;;;;;;;;;;13043667;22;20369;-85
2023/12/29 04:17:43;;;;;;;24.75;15.50;;;;;;;;;;13045984;22;20381;-86
2023/12/29 04:22:45;;;;;;;24.83;14.60;;;;;;;;;;13067866;22;20419;-86
2023/12/29 04:27:49;;;;;;;22.40;14.18;;;;;;;;;;13046253;22;20406;-86
2023/12/29 04:32:52;;;;;;;24.38;14.15;;;;;;;;;;13045464;22;20898;-84
2023/12/29 04:37:54;;;;;;;21.80;13.27;;;;;;;;;;13045016;22;20411;-84
2023/12/29 04:42:58;;;;;;;22.40;13.47;;;;;;;;;;13045336;22;20488;-83
2023/12/29 04:48:00;;;;;;;22.67;12.77;;;;;;;;;;13045595;22;20392;-86
2023/12/29 04:53:02;;;;;;;20.40;12.70;;;;;;;;;;13045197;22;20907;-85
2023/12/29 04:58:06;;;;;;;20.37;12.97;;;;;;;;;;13045203;22;20386;-86
2023/12/29 05:03:09;;;;;;;22.97;14.07;;;;;;;;;;13042076;22;20433;-86
2023/12/29 05:08:11;;;;;;;25.50;13.13;;;;;;;;;;13042416;22;20514;-86
2023/12/29 05:13:15;;;;;;;21.55;12.55;;;;;;;;;;13043132;22;20369;-86
2023/12/29 05:18:17;;;;;;;22.77;13.32;;;;;;;;;;13044864;22;20424;-85
2023/12/29 05:23:20;;;;;;;20.42;12.07;;;;;;;;;;13044866;22;20366;-84
2023/12/29 05:28:23;;;;;;;20.75;12.52;;;;;;;;;;13045428;22;20367;-85
2023/12/29 05:33:26;;;;;;;19.58;11.85;;;;;;;;;;13044667;22;20434;-86
2023/12/29 05:38:28;;;;;;;22.65;12.40;;;;;;;;;;13044410;22;21035;-86
2023/12/29 05:43:33;;;;;;;20.50;11.43;;;;;;;;;;13066222;22;20443;-86
2023/12/29 05:48:35;;;;;;;21.88;12.15;;;;;;;;;;13044363;22;20420;-84
2023/12/29 05:53:40;;;;;;;24.33;12.45;;;;;;;;;;13066507;22;20427;-85
2023/12/29 05:58:44;;;;;;;21.15;12.35;;;;;;;;;;13067108;22;20888;-86
2023/12/29 06:03:46;;;;;;;20.15;11.95;;;;;;;;;;13044338;22;20443;-85
2023/12/29 06:08:48;;;;;;;19.13;12.47;;;;;;;;;;13066474;22;20374;-86
2023/12/29 06:13:52;;;;;;;22.65;12.20;;;;;;;;;;13045057;22;20400;-86
2023/12/29 06:18:54;;;;;;;20.85;12.32;;;;;;;;;;13044089;22;20419;-86
2023/12/29 06:23:57;;;;;;;21.03;11.67;;;;;;;;;;13045164;22;20434;-85
2023/12/29 06:29:01;;;;;;;20.98;11.90;;;;;;;;;;13044061;22;20462;-86
2023/12/29 06:34:03;;;;;;;18.55;11.75;;;;;;;;;;13065691;22;20362;-86
2023/12/29 06:39:05;;;;;;;19.63;11.10;;;;;;;;;;13043975;22;20443;-86
2023/12/29 06:44:10;;;;;;;22.07;13.10;;;;;;;;;;13044555;22;20488;-86
2023/12/29 06:49:13;;;;;;;18.60;11.10;;;;;;;;;;13046880;22;20436;-85
2023/12/29 06:54:15;;;;;;;20.33;11.13;;;;;;;;;;13061250;22;20541;-86
2023/12/29 06:59:19;;;;;;;20.40;11.70;;;;;;;;;;13068876;22;20484;-86
2023/12/29 07:04:22;;;;;;;19.35;11.73;;;;;;;;;;13050192;22;20404;-89
2023/12/29 07:09:24;;;;;;;19.33;11.87;;;;;;;;;;13050395;22;20362;-88
2023/12/29 07:14:28;;;;;;;21.75;12.52;;;;;;;;;;13047852;22;20728;-88
2023/12/29 07:19:36;;;;;;;34.27;13.87;;;;;;;;;;13049027;22;20390;-88
2023/12/29 07:24:40;;;;;;;34.10;13.87;;;;;;;;;;13049851;22;20428;-86
2023/12/29 07:29:44;;;;;;;26.48;13.00;;;;;;;;;;13049215;22;20858;-87
2023/12/29 07:34:46;;;;;;;30.23;13.85;;;;;;;;;;13070340;22;20718;-87
2023/12/29 07:39:49;;;;;;;25.60;13.20;;;;;;;;;;13048329;22;20748;-87
2023/12/29 07:44:55;;;;;;;37.78;14.52;;;;;;;;;;13048733;22;20472;-88
2023/12/29 07:49:57;;;;;;;27.13;13.65;;;;;;;;;;13049344;22;20387;-88
2023/12/29 07:54:59;;;;;;;26.02;12.32;;;;;;;;;;13048924;22;20390;-88
2023/12/29 08:00:06;;;;;;;26.27;12.90;;;;;;;;;;13049838;22;20441;-87
2023/12/29 08:05:09;;;;;;;25.52;12.40;;;;;;;;;;13045625;22;20428;-88
2023/12/29 08:10:11;;;;;;;25.40;12.98;;;;;;;;;;13046411;22;20398;-88
2023/12/29 08:15:15;;;;;;;35.05;18.67;;;;;;;;;;13047325;22;20415;-88
2023/12/29 08:20:18;;;;;;;42.13;19.92;;;;;;;;;;13047796;22;20471;-89
2023/12/29 08:25:20;;;;;;;34.80;15.13;;;;;;;;;;13070084;22;20361;-89
2023/12/29 08:30:24;;;;;;;25.63;14.50;;;;;;;;;;13042829;22;20397;-84
2023/12/29 08:35:27;;;;;;;26.67;15.07;;;;;;;;;;13037894;22;20438;-83
2023/12/29 08:40:29;;;;;;;27.33;14.52;;;;;;;;;;13040614;22;20384;-89
2023/12/29 08:45:33;;;;;;;40.45;18.92;;;;;;;;;;13046909;22;20411;-88
2023/12/29 08:50:35;;;;;;;23.13;13.60;;;;;;;;;;13053232;22;20447;-89
2023/12/29 08:55:38;;;;;;;29.88;15.73;;;;;;;;;;13046701;22;20368;-89
2023/12/29 09:00:41;;;;;;;28.77;14.87;;;;;;;;;;13060500;22;20452;-89
2023/12/29 09:05:44;;;;;;;26.35;15.73;;;;;;;;;;13041129;22;20357;-88
2023/12/29 09:10:46;;;;;;;28.67;16.40;;;;;;;;;;13063699;22;20357;-89
2023/12/29 09:15:50;;;;;;;27.97;15.67;;;;;;;;;;13061192;22;20365;-89
2023/12/29 09:20:52;;;;;;;28.88;16.50;;;;;;;;;;13044875;22;20663;-89
2023/12/29 09:25:55;;;;;;;28.75;17.90;;;;;;;;;;13045144;22;20365;-89
2023/12/29 09:31:00;;;;;;;30.87;17.60;;;;;;;;;;13044183;22;20435;-89
2023/12/29 09:36:02;;;;;;;33.37;17.93;;;;;;;;;;13045617;22;20357;-89
2023/12/29 09:41:08;;;;;;;33.20;17.38;;;;;;;;;;13043646;22;20389;-89
2023/12/29 09:46:17;;;;;;;31.13;17.10;;;;;;;;;;13045497;22;20391;-89
2023/12/29 09:51:23;;;;;;;29.13;16.57;;;;;;;;;;13040374;22;20399;-86
2023/12/29 09:56:25;;;;;;;26.77;16.83;;;;;;;;;;13066635;22;20349;-88
2023/12/29 10:01:30;;;;;;;27.55;16.02;;;;;;;;;;13044298;22;20438;-89
2023/12/29 10:06:37;;;;;;;27.35;17.35;;;;;;;;;;13043346;22;20369;-86
2023/12/29 10:11:43;;;;;;;26.38;16.02;;;;;;;;;;13064234;22;20364;-89
2023/12/29 10:16:54;;;;;;;26.42;16.17;;;;;;;;;;13042236;22;21314;-88
2023/12/29 10:22:03;;;;;;;49.83;27.50;;;;;;;;;;13066608;22;20373;-87
2023/12/29 10:27:06;;;;;;;31.87;18.60;;;;;;;;;;13046959;22;20893;-87
2023/12/29 10:32:10;;;;;;;33.30;19.35;;;;;;;;;;13066094;22;20361;-86
2023/12/29 10:37:19;;;;;;;32.50;18.85;;;;;;;;;;13045912;22;20364;-88
2023/12/29 10:42:21;;;;;;;29.85;16.58;;;;;;;;;;13043001;22;20381;-84
2023/12/29 10:47:25;;;;;;;27.10;16.45;;;;;;;;;;13043698;22;20361;-94
2023/12/29 10:52:28;;;;;;;26.90;16.90;;;;;;;;;;13049689;22;20426;-92
2023/12/29 10:57:30;;;;;;;29.43;17.63;;;;;;;;;;13048854;22;20427;-93
2023/12/29 11:02:34;;;;;;;26.20;15.87;;;;;;;;;;13041690;22;20376;-87
2023/12/29 11:07:37;;;;;;;26.60;16.23;;;;;;;;;;13031511;22;20829;-86
2023/12/29 11:12:42;;;;;;;25.87;14.90;;;;;;;;;;13023496;22;20357;-87
2023/12/29 11:17:49;;;;;;;24.10;14.93;;;;;;;;;;13037206;22;20357;-86
2023/12/29 11:22:51;;;;;;;24.70;13.75;;;;;;;;;;13036209;22;20759;-88
2023/12/29 11:27:55;;;;;;;22.65;14.00;;;;;;;;;;13037009;22;20364;-86
2023/12/29 11:33:03;;;;;;;23.77;14.67;;;;;;;;;;13036397;22;20413;-86
2023/12/29 11:38:30;;;;;;;25.40;15.13;;;;;;;;;;13032045;22;20369;-86
2023/12/29 11:43:35;;;;;;;23.00;14.23;;;;;;;;;;13013492;22;20410;-86
2023/12/29 11:48:59;;;;;;;25.70;13.88;;;;;;;;;;13034964;22;21059;-87
2023/12/29 11:54:05;;;;;;;21.23;13.77;;;;;;;;;;13013782;22;20391;-87
2023/12/29 11:59:18;;;;;;;23.88;15.40;;;;;;;;;;13040389;22;20385;-87
2023/12/29 12:04:52;;;;;;;27.20;15.87;;;;;;;;;;13011081;22;20901;-87
2023/12/29 12:10:32;;;;;;;49.33;25.10;;;;;;;;;;13034059;22;20480;-87
2023/12/29 12:15:35;;;;;;;23.80;13.50;;;;;;;;;;13037894;22;20376;-88
2023/12/29 12:20:39;;;;;;;26.60;15.15;;;;;;;;;;13034491;22;20392;-85
2023/12/29 12:25:43;;;;;;;26.63;14.18;;;;;;;;;;13032367;22;20454;-86
2023/12/29 12:30:45;;;;;;;23.63;15.07;;;;;;;;;;13031723;22;20380;-84
2023/12/29 12:36:00;;;;;;;23.75;14.88;;;;;;;;;;13034997;22;20385;-85
2023/12/29 12:41:11;;;;;;;24.97;14.90;;;;;;;;;;13035638;22;20381;-85
2023/12/29 12:46:15;;;;;;;26.63;15.00;;;;;;;;;;13004336;22;20377;-86
2023/12/29 12:51:20;;;;;;;23.25;14.15;;;;;;;;;;13032951;22;20365;-86
2023/12/29 12:56:27;;;;;;;23.88;14.55;;;;;;;;;;13032690;22;20411;-85
2023/12/29 13:01:31;;;;;;;25.02;15.30;;;;;;;;;;13032132;22;20434;-85
2023/12/29 13:06:35;;;;;;;31.45;16.17;;;;;;;;;;13053971;22;20682;-86
2023/12/29 13:11:38;;;;;;;34.13;19.85;;;;;;;;;;13032941;22;20385;-86
2023/12/29 13:16:40;;;;;;;27.97;17.57;;;;;;;;;;13028667;22;20380;-85
2023/12/29 13:21:47;;;;;;;28.60;18.47;;;;;;;;;;13029537;22;20535;-85
2023/12/29 13:26:56;;;;;;;31.63;18.52;;;;;;;;;;13032406;22;20447;-85
2023/12/29 13:32:01;;;;;;;47.37;28.77;;;;;;;;;;13029338;22;20439;-86
2023/12/29 13:37:11;;;;;;;37.75;21.75;;;;;;;;;;13040749;22;20365;-86
2023/12/29 13:42:17;;;;;;;40.97;24.33;;;;;;;;;;13027174;22;20929;-86
2023/12/29 13:47:21;;;;;;;32.30;19.15;;;;;;;;;;13026515;22;20430;-86
2023/12/29 13:52:25;;;;;;;33.90;18.67;;;;;;;;;;13032374;22;20380;-86
2023/12/29 13:57:32;;;;;;;32.40;19.25;;;;;;;;;;13053085;22;20377;-85
2023/12/29 14:02:38;;;;;;;41.85;23.92;;;;;;;;;;13037171;22;20385;-86
2023/12/29 14:07:48;;;;;;;36.63;21.45;;;;;;;;;;13038806;22;20411;-84
2023/12/29 14:12:50;;;;;;;38.92;21.80;;;;;;;;;;13037785;22;20402;-85
2023/12/29 14:18:01;;;;;;;40.78;22.50;;;;;;;;;;13041656;22;20407;-85
2023/12/29 14:23:05;;;;;;;33.07;18.63;;;;;;;;;;13041653;22;20377;-85
2023/12/29 14:28:16;;;;;;;33.78;19.33;;;;;;;;;;13043620;22;20365;-89
2023/12/29 14:33:18;;;;;;;35.90;19.30;;;;;;;;;;13065549;22;20486;-89
2023/12/29 14:38:24;;;;;;;34.05;19.75;;;;;;;;;;13046264;22;20927;-82
2023/12/29 14:43:26;;;;;;;31.65;18.52;;;;;;;;;;13045777;22;20381;-87
2023/12/29 14:48:29;;;;;;;58.60;29.30;;;;;;;;;;13065950;22;20697;-88
2023/12/29 14:53:35;;;;;;;54.78;27.00;;;;;;;;;;13067711;22;20416;-87
2023/12/29 14:58:37;;;;;;;78.25;34.80;;;;;;;;;;13046171;22;20414;-87
2023/12/29 15:03:39;;;;;;;28.60;17.97;;;;;;;;;;13066412;22;20369;-87
2023/12/29 15:08:43;;;;;;;57.73;26.97;;;;;;;;;;13046033;22;20365;-87
2023/12/29 15:13:46;;;;;;;43.92;23.27;;;;;;;;;;13046041;22;20349;-87
2023/12/29 15:18:48;;;;;;;38.50;20.70;;;;;;;;;;13045583;22;20357;-88
2023/12/29 15:23:52;;;;;;;32.80;18.30;;;;;;;;;;13045744;22;20369;-87
2023/12/29 15:28:55;;;;;;;162.97;64.33;;;;;;;;;;13045779;22;21168;-87
2023/12/29 15:33:57;;;;;;;72.47;34.25;;;;;;;;;;13067384;22;20349;-87
2023/12/29 15:39:01;;;;;;;122.37;51.10;;;;;;;;;;13046550;22;20373;-87
2023/12/29 15:44:06;;;;;;;131.35;55.08;;;;;;;;;;13045701;22;20433;-88
2023/12/29 15:49:08;;;;;;;59.27;29.87;;;;;;;;;;13045522;22;20520;-87
2023/12/29 15:54:12;;;;;;;41.53;23.47;;;;;;;;;;13045227;22;20829;-87
2023/12/29 15:59:14;;;;;;;45.67;25.15;;;;;;;;;;13046451;22;20361;-87
2023/12/29 16:04:17;;;;;;;47.08;25.50;;;;;;;;;;13044927;22;20405;-87
2023/12/29 16:09:21;;;;;;;40.57;22.07;;;;;;;;;;13045892;22;20472;-88
2023/12/29 16:14:23;;;;;;;37.72;22.83;;;;;;;;;;13045467;22;20373;-88
2023/12/29 16:19:25;;;;;;;36.67;22.05;;;;;;;;;;13068607;22;20357;-88
2023/12/29 16:24:30;;;;;;;47.45;25.70;;;;;;;;;;13045289;22;20372;-87
2023/12/29 16:29:32;;;;;;;40.58;24.08;;;;;;;;;;13066032;22;20859;-87
2023/12/29 16:34:34;;;;;;;65.70;36.90;;;;;;;;;;13068141;22;20365;-87
2023/12/29 16:39:41;;;;;;;42.55;24.08;;;;;;;;;;13064305;22;20418;-88
2023/12/29 16:44:43;;;;;;;49.13;27.90;;;;;;;;;;13043113;22;20369;-87
2023/12/29 16:49:46;;;;;;;51.38;29.85;;;;;;;;;;13044237;22;20361;-87
2023/12/29 16:54:50;;;;;;;56.88;32.88;;;;;;;;;;13045409;22;20744;-87
2023/12/29 16:59:54;;;;;;;50.67;30.27;;;;;;;;;;13066697;22;20365;-87
2023/12/29 17:04:57;;;;;;;47.58;28.15;;;;;;;;;;13045608;22;20893;-87
2023/12/29 17:10:00;;;;;;;35.83;21.35;;;;;;;;;;13046222;22;20420;-87
2023/12/29 17:15:04;;;;;;;38.23;22.23;;;;;;;;;;13045355;22;20739;-87
2023/12/29 17:20:07;;;;;;;40.88;23.92;;;;;;;;;;13045881;22;20364;-87
2023/12/29 17:25:11;;;;;;;38.50;22.27;;;;;;;;;;13046369;22;20773;-87
2023/12/29 17:30:15;;;;;;;34.87;22.00;;;;;;;;;;13065370;22;20364;-87
2023/12/29 17:35:23;;;;;;;38.72;22.55;;;;;;;;;;13045691;22;20360;-86
2023/12/29 17:40:27;;;;;;;44.45;27.88;;;;;;;;;;13047719;22;20384;-86
2023/12/29 17:45:29;;;;;;;43.30;25.63;;;;;;;;;;13045242;22;20423;-87
2023/12/29 17:50:31;;;;;;;45.58;26.90;;;;;;;;;;13066299;22;20353;-87
2023/12/29 17:55:35;;;;;;;42.27;26.50;;;;;;;;;;13045385;22;20349;-87
2023/12/29 18:00:38;;;;;;;41.60;25.58;;;;;;;;;;13045647;22;20377;-87
2023/12/29 18:05:41;;;;;;;49.57;28.03;;;;;;;;;;13044598;22;20512;-87
2023/12/29 18:10:47;;;;;;;50.10;29.95;;;;;;;;;;13066424;22;20426;-87
2023/12/29 18:15:50;;;;;;;58.03;31.37;;;;;;;;;;13045262;22;20681;-87
2023/12/29 18:20:52;;;;;;;53.55;30.30;;;;;;;;;;13044904;22;20385;-87
2023/12/29 18:25:57;;;;;;;46.30;27.98;;;;;;;;;;13045832;22;20836;-87
2023/12/29 18:31:03;;;;;;;46.83;27.17;;;;;;;;;;13060414;22;20368;-90
2023/12/29 18:36:06;;;;;;;168.77;72.35;;;;;;;;;;13045633;22;20361;-87
2023/12/29 18:41:10;;;;;;;57.85;31.58;;;;;;;;;;13044737;22;20443;-85
2023/12/29 18:46:14;;;;;;;55.22;31.55;;;;;;;;;;13051081;22;20395;-89
2023/12/29 18:51:18;;;;;;;56.33;32.93;;;;;;;;;;13045757;22;20368;-90
2023/12/29 18:56:21;;;;;;;59.22;34.38;;;;;;;;;;13044703;22;20407;-90
2023/12/29 19:01:24;;;;;;;63.08;34.17;;;;;;;;;;13066501;22;20426;-91
2023/12/29 19:06:26;;;;;;;62.75;35.00;;;;;;;;;;13044184;22;20373;-90
2023/12/29 19:11:30;;;;;;;66.78;36.63;;;;;;;;;;13043733;22;20431;-91
2023/12/29 19:16:32;;;;;;;95.82;48.55;;;;;;;;;;13046258;22;20422;-90
2023/12/29 19:21:39;;;;;;;71.82;40.35;;;;;;;;;;13044108;22;20377;-90
2023/12/29 19:26:42;;;;;;;66.45;37.97;;;;;;;;;;13043522;22;20422;-91
2023/12/29 19:31:45;;;;;;;68.90;40.65;;;;;;;;;;13017112;22;20373;-90
2023/12/29 19:36:47;;;;;;;77.13;44.92;;;;;;;;;;13043553;22;20419;-91
2023/12/29 19:41:51;;;;;;;72.43;41.08;;;;;;;;;;13043458;22;20438;-89
2023/12/29 19:46:54;;;;;;;66.10;38.55;;;;;;;;;;13042508;22;20372;-90
2023/12/29 19:51:57;;;;;;;67.35;40.00;;;;;;;;;;13042087;22;20357;-90
2023/12/29 19:57:01;;;;;;;64.15;37.53;;;;;;;;;;13042893;22;20841;-90
2023/12/29 20:02:04;;;;;;;63.42;36.95;;;;;;;;;;13043217;22;20419;-90
2023/12/29 20:07:07;;;;;;;65.50;37.10;;;;;;;;;;13041637;22;20403;-90
2023/12/29 20:12:10;;;;;;;68.18;39.42;;;;;;;;;;13044324;22;20392;-91
2023/12/29 20:17:13;;;;;;;70.68;41.78;;;;;;;;;;13043264;22;20438;-90
2023/12/29 20:22:15;;;;;;;75.97;42.60;;;;;;;;;;13042823;22;20412;-91
2023/12/29 20:27:19;;;;;;;72.80;42.33;;;;;;;;;;13052404;22;20377;-91
2023/12/29 20:32:21;;;;;;;77.40;44.20;;;;;;;;;;13047377;22;20377;-91
2023/12/29 20:37:23;;;;;;;72.40;42.83;;;;;;;;;;13038397;22;20910;-96
2023/12/29 20:42:27;;;;;;;74.82;43.50;;;;;;;;;;13038159;22;20438;-91
2023/12/29 20:47:30;;;;;;;72.53;43.40;;;;;;;;;;13036895;22;20442;-92
2023/12/29 20:52:32;;;;;;;77.50;42.90;;;;;;;;;;13040580;22;20446;-88
2023/12/29 20:57:36;;;;;;;74.03;42.33;;;;;;;;;;13038080;22;20434;-87
2023/12/29 21:02:38;;;;;;;77.25;42.47;;;;;;;;;;13039119;22;20380;-88
2023/12/29 21:07:44;;;;;;;73.72;41.05;;;;;;;;;;13038425;22;20361;-89
2023/12/29 21:12:57;;;;;;;69.90;40.65;;;;;;;;;;13039059;22;20376;-88
2023/12/29 21:18:07;;;;;;;64.82;37.50;;;;;;;;;;13038655;22;21779;-89
2023/12/29 21:23:09;;;;;;;61.35;36.83;;;;;;;;;;13037720;22;20384;-88
2023/12/29 21:28:13;;;;;;;63.35;36.15;;;;;;;;;;13039651;22;20373;-89
2023/12/29 21:33:16;;;;;;;66.70;37.42;;;;;;;;;;13039637;22;20377;-89
2023/12/29 21:38:18;;;;;;;62.42;36.38;;;;;;;;;;13038925;22;20372;-90
2023/12/29 21:43:22;;;;;;;65.32;37.95;;;;;;;;;;13038734;22;20385;-88
2023/12/29 21:48:24;;;;;;;68.15;38.05;;;;;;;;;;13039571;22;20376;-88
2023/12/29 21:53:26;;;;;;;80.43;45.50;;;;;;;;;;13037911;22;20411;-89
2023/12/29 21:58:31;;;;;;;70.80;42.30;;;;;;;;;;13057644;22;20373;-89
2023/12/29 22:03:35;;;;;;;68.35;40.63;;;;;;;;;;13038939;22;20414;-90
2023/12/29 22:08:40;;;;;;;66.80;39.88;;;;;;;;;;13036142;22;21061;-89
2023/12/29 22:13:44;;;;;;;68.03;40.00;;;;;;;;;;13010394;22;20403;-88
2023/12/29 22:18:47;;;;;;;72.88;43.67;;;;;;;;;;13042321;22;20369;-87
2023/12/29 22:23:49;;;;;;;65.57;39.25;;;;;;;;;;13042179;22;20446;-89
2023/12/29 22:28:53;;;;;;;67.90;40.03;;;;;;;;;;13043040;22;20430;-87
2023/12/29 22:33:55;;;;;;;66.22;40.95;;;;;;;;;;13041783;22;20435;-88
2023/12/29 22:38:58;;;;;;;67.25;40.95;;;;;;;;;;13053813;22;20377;-89
2023/12/29 22:44:02;;;;;;;80.82;47.25;;;;;;;;;;13043716;22;20381;-89
2023/12/29 22:49:04;;;;;;;110.07;52.97;;;;;;;;;;13041484;22;20445;-89
2023/12/29 22:54:07;;;;;;;81.65;46.03;;;;;;;;;;13042183;22;20857;-89
2023/12/29 22:59:11;;;;;;;76.97;42.77;;;;;;;;;;13039138;22;20854;-87
2023/12/29 23:04:13;;;;;;;70.20;40.55;;;;;;;;;;13042637;22;20438;-86
2023/12/29 23:09:15;;;;;;;65.18;40.67;;;;;;;;;;13045280;22;20369;-86
2023/12/29 23:14:19;;;;;;;67.88;39.65;;;;;;;;;;13046676;22;20438;-86
2023/12/29 23:19:22;;;;;;;68.80;40.38;;;;;;;;;;13043941;22;20377;-88
2023/12/29 23:24:24;;;;;;;66.50;39.80;;;;;;;;;;13044541;22;20411;-86
2023/12/29 23:29:28;;;;;;;68.80;39.65;;;;;;;;;;13044566;22;20365;-86
2023/12/29 23:34:30;;;;;;;65.70;38.57;;;;;;;;;;13042433;22;20361;-86
2023/12/29 23:39:33;;;;;;;70.55;42.80;;;;;;;;;;13039845;22;20364;-87
2023/12/29 23:44:39;;;;;;;72.53;42.40;;;;;;;;;;13039679;22;20376;-86
2023/12/29 23:49:42;;;;;;;78.75;44.55;;;;;;;;;;13046210;22;20357;-86
2023/12/29 23:54:44;;;;;;;78.60;46.55;;;;;;;;;;13046399;22;20443;-85
2023/12/29 23:59:48;;;;;;;80.53;48.13;;;;;;;;;;13044911;22;20368;-86
